createdAt,value
2022-10-18T00:01:19.798Z,23.42
2022-10-18T00:03:51.829Z,22.90
2022-10-18T00:06:23.590Z,22.85
2022-10-18T00:20:46.269Z,25.13
2022-10-18T00:23:38.060Z,24.65
2022-10-18T00:26:35.192Z,24.98
2022-10-18T00:29:25.942Z,25.00
2022-10-18T00:32:17.858Z,25.70
2022-10-18T00:34:48.701Z,28.02
2022-10-18T00:37:19.893Z,27.73
2022-10-18T00:40:13.556Z,26.40
2022-10-18T00:42:44.424Z,28.38
2022-10-18T00:45:41.817Z,28.25
2022-10-18T00:48:15.833Z,27.75
2022-10-18T01:14:02.647Z,26.95
2022-10-18T01:17:56.176Z,26.35
2022-10-18T01:20:57.261Z,26.40
2022-10-18T01:24:23.947Z,26.13
2022-10-18T01:27:36.971Z,25.52
2022-10-18T01:30:45.514Z,26.33
2022-10-18T01:33:25.814Z,26.15
2022-10-18T01:36:20.505Z,27.50
2022-10-18T02:49:47.281Z,24.48
2022-10-18T02:52:38.371Z,25.25
2022-10-18T02:55:32.057Z,24.20
2022-10-18T02:58:03.369Z,23.77
2022-10-18T03:00:34.340Z,24.02
2022-10-18T03:03:05.476Z,24.30
2022-10-18T03:05:56.608Z,24.52
2022-10-18T03:26:29.731Z,22.63
2022-10-18T03:29:23.787Z,23.27
2022-10-18T03:31:54.666Z,22.75
2022-10-18T03:35:06.562Z,22.35
2022-10-18T03:37:37.761Z,22.60
2022-10-18T03:40:09.632Z,21.75
2022-10-18T03:42:40.898Z,21.83
2022-10-18T03:45:34.044Z,21.88
2022-10-18T03:48:05.165Z,22.10
2022-10-18T03:50:36.153Z,22.60
2022-10-18T03:53:07.397Z,20.58
2022-10-18T03:55:57.973Z,20.27
2022-10-18T03:58:30.214Z,21.17
2022-10-18T04:01:01.132Z,20.23
2022-10-18T04:03:55.257Z,19.70
2022-10-18T04:06:26.317Z,20.67
2022-10-18T04:09:17.336Z,20.60
2022-10-18T04:58:19.369Z,18.10
2022-10-18T05:00:50.904Z,17.77
2022-10-18T05:03:21.944Z,17.65
2022-10-18T05:06:08.035Z,18.15
2022-10-18T05:09:01.796Z,17.42
2022-10-18T05:11:33.070Z,17.55
2022-10-18T05:14:04.159Z,16.33
2022-10-18T05:17:04.115Z,16.60
2022-10-18T05:19:35.376Z,16.92
2022-10-18T05:22:06.406Z,18.05
2022-10-18T05:24:58.039Z,16.70
2022-10-18T05:27:30.337Z,16.85
2022-10-18T05:30:04.611Z,16.45
2022-10-18T05:32:59.436Z,16.13
2022-10-18T05:35:30.264Z,16.75
2022-10-18T05:38:03.930Z,17.05
2022-10-18T05:40:53.456Z,15.95
2022-10-18T05:43:24.625Z,15.95
2022-10-18T05:46:15.896Z,16.10
2022-10-18T05:48:51.221Z,16.30
2022-10-18T05:51:22.431Z,16.55
2022-10-18T05:54:36.296Z,15.02
2022-10-18T05:57:07.448Z,16.55
2022-10-18T06:00:12.015Z,16.33
2022-10-18T06:25:19.525Z,14.32
2022-10-18T06:28:30.235Z,15.07
2022-10-18T06:31:24.517Z,14.13
2022-10-18T06:33:57.566Z,13.93
2022-10-18T06:36:48.445Z,14.57
2022-10-18T06:39:42.444Z,15.07
2022-10-18T06:42:34.462Z,13.32
2022-10-18T06:45:06.683Z,14.50
2022-10-18T06:47:38.331Z,13.25
2022-10-18T06:50:10.869Z,13.68
2022-10-18T07:04:36.586Z,12.75
2022-10-18T07:07:07.470Z,13.75
2022-10-18T07:09:38.675Z,13.32
2022-10-18T07:12:29.630Z,13.00
2022-10-18T07:15:25.242Z,12.90
2022-10-18T07:17:56.424Z,12.80
2022-10-18T07:20:47.619Z,12.00
2022-10-18T07:23:18.536Z,12.75
2022-10-18T07:25:49.644Z,12.73
2022-10-18T07:28:41.300Z,13.48
2022-10-18T07:31:16.108Z,11.93
2022-10-18T07:33:47.341Z,12.20
2022-10-18T08:15:04.671Z,11.77
2022-10-18T08:17:55.807Z,11.85
2022-10-18T08:20:30.829Z,12.57
2022-10-18T08:23:02.775Z,11.85
2022-10-18T08:25:33.979Z,12.18
2022-10-18T08:28:05.019Z,12.20
2022-10-18T08:30:38.105Z,12.52
2022-10-18T08:33:09.019Z,13.13
2022-10-18T08:36:16.950Z,11.95
2022-10-18T08:51:47.116Z,11.10
2022-10-18T08:54:28.013Z,11.18
2022-10-18T08:57:04.944Z,11.52
2022-10-18T08:59:45.676Z,11.38
2022-10-18T09:02:51.613Z,10.95
2022-10-18T09:05:51.927Z,11.18
2022-10-18T09:08:45.803Z,10.98
2022-10-18T09:11:41.863Z,11.10
2022-10-18T09:14:27.168Z,12.18
2022-10-18T09:16:57.955Z,10.82
2022-10-18T09:20:25.608Z,11.77
2022-10-18T09:23:41.826Z,10.38
2022-10-18T09:26:51.040Z,10.82
2022-10-18T09:32:51.080Z,10.98
2022-10-18T09:35:33.324Z,11.00
2022-10-18T09:38:34.404Z,10.68
2022-10-18T11:02:22.743Z,11.57
2022-10-18T11:04:56.402Z,10.95
2022-10-18T11:07:42.755Z,11.30
2022-10-18T11:10:16.298Z,12.25
2022-10-18T11:12:51.878Z,11.15
2022-10-18T11:15:37.780Z,11.25
2022-10-18T11:18:35.358Z,11.82
2022-10-18T11:21:46.514Z,10.85
2022-10-18T11:24:59.396Z,10.63
2022-10-18T11:27:32.501Z,11.43
2022-10-18T11:35:11.518Z,9.68
2022-10-18T12:08:41.055Z,10.30
2022-10-18T12:14:52.160Z,10.02
2022-10-18T12:17:51.513Z,9.73
2022-10-18T13:07:35.599Z,17.33
2022-10-18T13:10:38.175Z,17.67
2022-10-18T13:13:39.872Z,17.75
2022-10-18T13:16:57.729Z,17.58
2022-10-18T13:20:25.536Z,17.23
2022-10-18T13:23:56.666Z,18.20
2022-10-18T13:26:59.079Z,17.92
2022-10-18T13:30:13.094Z,18.05
2022-10-18T13:33:24.644Z,18.25
2022-10-18T14:12:18.403Z,15.70
2022-10-18T14:15:16.822Z,15.73
2022-10-18T14:18:10.439Z,15.23
2022-10-18T14:21:01.593Z,15.50
2022-10-18T14:23:40.809Z,14.77
2022-10-18T14:29:34.023Z,14.40
2022-10-18T14:35:31.472Z,14.68
2022-10-18T14:38:18.035Z,14.20
2022-10-18T14:40:50.306Z,13.93
2022-10-18T15:03:20.432Z,14.18
2022-10-18T15:06:04.251Z,13.02
2022-10-18T15:08:46.063Z,12.57
2022-10-18T15:11:40.391Z,13.27
2022-10-18T15:18:06.930Z,11.93
2022-10-18T15:20:44.021Z,12.80
2022-10-18T15:23:33.714Z,13.02
2022-10-18T15:26:29.716Z,12.65
2022-10-18T15:29:04.494Z,13.02
2022-10-18T15:31:41.356Z,13.57
2022-10-18T15:34:29.751Z,12.80
2022-10-18T15:37:02.201Z,12.18
2022-10-18T15:52:36.637Z,11.43
2022-10-18T15:55:35.338Z,12.25
2022-10-18T15:58:49.122Z,11.30
2022-10-18T16:07:29.523Z,11.93
2022-10-18T16:22:06.919Z,11.57
2022-10-18T16:25:35.643Z,11.23
2022-10-18T16:28:06.798Z,11.43
2022-10-18T16:30:38.736Z,11.73
2022-10-18T16:33:09.944Z,11.45
2022-10-18T16:36:01.488Z,11.10
2022-10-18T16:38:35.739Z,11.52
2022-10-18T16:41:08.857Z,11.23
2022-10-18T16:44:00.728Z,10.43
2022-10-18T16:46:58.479Z,11.30
2022-10-18T16:49:30.401Z,10.93
2022-10-18T16:52:23.544Z,12.07
2022-10-18T16:54:55.688Z,10.90
2022-10-18T16:57:27.782Z,10.90
2022-10-18T16:59:59.157Z,10.95
2022-10-18T17:02:30.724Z,10.05
2022-10-18T17:05:25.240Z,10.43
2022-10-18T17:07:57.976Z,10.77
2022-10-18T17:10:28.970Z,10.55
2022-10-18T17:12:59.957Z,11.23
2022-10-18T17:15:32.892Z,10.18
2022-10-18T17:18:07.216Z,10.07
2022-10-18T17:20:38.265Z,10.02
2022-10-18T17:23:10.474Z,9.88
2022-10-18T17:26:26.195Z,9.63
2022-10-18T17:29:01.333Z,10.25
2022-10-18T17:31:52.464Z,10.40
2022-10-18T17:34:49.926Z,9.95
2022-10-18T17:37:35.603Z,10.65
2022-10-18T17:40:08.654Z,10.38
2022-10-18T17:43:06.273Z,9.98
2022-10-18T17:45:38.431Z,9.68
2022-10-18T18:09:17.469Z,10.80
2022-10-18T18:12:08.689Z,10.55
2022-10-18T18:15:02.437Z,9.27
2022-10-18T18:17:57.208Z,8.77
2022-10-18T18:20:29.412Z,9.25
2022-10-18T18:23:29.921Z,9.02
2022-10-18T18:42:56.764Z,9.18
2022-10-18T18:45:56.989Z,9.38
2022-10-18T18:48:29.729Z,9.40
2022-10-18T18:51:00.795Z,10.45
2022-10-18T18:53:32.150Z,9.75
2022-10-18T18:56:12.799Z,9.35
2022-10-18T18:59:07.144Z,8.90
2022-10-18T19:01:39.718Z,9.93
2022-10-18T19:04:11.797Z,9.65
2022-10-18T19:10:09.727Z,9.13
2022-10-18T19:13:01.868Z,9.25
2022-10-18T21:48:18.940Z,8.40
2022-10-18T21:50:49.893Z,8.73
2022-10-18T21:53:20.960Z,8.63
2022-10-18T21:55:52.007Z,9.00
2022-10-18T21:58:22.853Z,9.40
2022-10-18T22:00:53.805Z,8.60
2022-10-18T22:03:24.671Z,8.45
2022-10-18T22:06:06.580Z,8.70
2022-10-18T22:08:59.897Z,8.43
2022-10-18T22:11:41.389Z,8.93
2022-10-18T22:14:35.471Z,8.55
2022-10-18T22:17:06.432Z,8.48
2022-10-18T22:20:13.009Z,9.23
2022-10-18T22:22:43.817Z,7.97
2022-10-18T22:25:47.333Z,9.27
2022-10-18T23:04:04.068Z,8.63
2022-10-18T23:06:54.976Z,8.32
2022-10-18T23:09:25.790Z,8.20
2022-10-18T23:11:56.971Z,8.20
2022-10-18T23:14:27.870Z,8.32
2022-10-18T23:16:59.591Z,8.30
2022-10-18T23:22:35.624Z,7.15
2022-10-18T23:25:32.638Z,8.40
2022-10-18T23:28:04.834Z,8.80
2022-10-18T23:30:36.008Z,8.60
2022-10-18T23:33:06.894Z,8.70
2022-10-18T23:35:39.575Z,7.85
2022-10-18T23:38:11.435Z,8.32
2022-10-18T23:41:03.140Z,8.23
2022-10-18T23:43:34.394Z,8.40
2022-10-18T23:46:05.778Z,7.93
2022-10-18T23:48:59.791Z,8.13
2022-10-18T23:51:32.044Z,8.30
2022-10-18T23:54:03.030Z,10.35
2022-10-18T23:56:54.088Z,10.85
2022-10-18T23:59:25.235Z,14.63
